Airfield :
LOGIN :

Register | Disclaimer

   EN    FR    IT 

 










Legend :    VFR   Marginal VFR   IFR   Intensive IFR   Very Intensive IFR
Visi :
Ceiling :
>= 8 km
>= 3000ft
5 to 8 km
1000 to 3000 ft
1500m to 5 km
500 to 1000 ft
800 to 1500m
200 to 500 ft
< 800m
< 200 ft
Symbols :   Thunderstorms  Fog  Heavy snow  Heavy precipitations  Wind > 20 kt
SIGMETs :     Misc.  Thunderstorms  Icing  Turbulence  Mountain Waves  Volcanic Ashes






- Airport Elevation : 102 ft
- IATA code : CNG


LFBG - Cognac

CURRENT METAR :
  • 282200Z AUTO 20005KT 9999 FEW008 BKN017 BKN030 10/09 Q1023

EXPIRED METARs :
  • 282130Z AUTO 22004KT 9999 FEW010 OVC015 10/08 Q1023
  • 282100Z AUTO 23004KT 9999 OVC019 10/08 Q1023
  • 282030Z AUTO 19003KT 9999 BKN022 OVC052 10/07 Q1023
  • 282000Z AUTO 24003KT 9999 SCT023 OVC050 10/08 Q1023
  • 281930Z AUTO 24004KT 9999 BKN024 BKN052 10/08 Q1023
  • 281900Z AUTO 25006KT 9999 BKN026 BKN038 OVC048 11/08 Q1023
  • 281830Z AUTO 26008KT 9999 OVC029 12/08 Q1024
  • 281800Z AUTO 29005KT 9999 BKN031 OVC052 12/07 Q1023
  • 281730Z AUTO 28007KT 9999 BKN031 OVC054 12/07 Q1023

TAF AMD TAF LFBG
Valid from the 28 at 15:00 until the 29 at 15:00 UTC


281516Z 2815/2915 25005KT 9999 SCT025
TEMPO 2817/2824 4000 -RA BKN010
TEMPO 2900/2912 3000 -DZRA OVC003
TEMPO 2912/2915 4000 RA BKN008



MET'MAP, your aeronautical weather chart ! - Copyright ORBIFLY December 2007 - Disclaimer

ORBIFLY MET'MAP TEAM :

Programming & Development : Alexandra Zaïnal
Original concept : Baudouin d'Aumeries
Technical & hardware support : Manuel Goepfert
Assistance : Marc-Olivier Méhu




SOURCES & CREDITS :

   NOAA